Impacts TAF Board
For situational awareness. Not to be used for flight planning purposes.
IDs:

KLGA - New York/La Guardia, NY, US

Issued at 2341 UTC 16 Jul 2019
Updated at 0100 UTC 17 Jul 2019
Potential Impact None Slight Moderate High
Time<<17/13Z 17/14Z 17/15Z 17/16Z 17/17Z 17/18Z 17/19Z 17/20Z 17/21Z 17/22Z 17/23Z 18/00Z 18/01Z>>
Type PRVL PRVL PRVL PRVL PRVL PRVL PRVL PRVL PRVL PRVL PRVL
  [PRB30]  
PRVL
  [PRB30]  
PRVL
  [PRB30]  
VIS >6 >6 >6 >6 >6 >6 >6 >6 >6 >6 >6
  [3]  
>6
  [3]  
>6
  [3]  
CIG 250 250 250 250 250 250 250 250 250 250 40
  [25]  
40
  [25]  
40
  [25]  
Cover BKN BKN BKN BKN BKN BKN BKN BKN BKN BKN BKN
  [BKN]  
BKN
  [BKN]  
BKN
  [BKN]  
FltCat VFR VFR VFR VFR VFR VFR VFR VFR VFR VFR VFR
  [MVFR]  
VFR
  [MVFR]  
VFR
  [MVFR]  
WX -- -- -- -- -- -- -- -- -- -- VCSH
  [TSRA]  
VCSH
  [TSRA]  
VCSH
  [TSRA]  
WDir 220 220 240 240 240 240 190 190 190 190 200
[200]
200
[200]
200
[200]
WSpd 6 6 7 7 7 7 12 12 12 12 10
  [10]  
10
  [10]  
10
  [10]  
WGst -- -- -- -- -- -- 18 18 18 18 --
  [--]  
--
  [--]  
--
  [--]  
Raw TAF
KLGA 162341Z 1700/1806 19010KT P6SM BKN250
  FM170200 22006KT P6SM SCT150 BKN250
  FM171500 24007KT P6SM SCT150 BKN250
  FM171900 19012G18KT P6SM SCT050 SCT150 BKN250
  FM172300 20010KT P6SM VCSH SCT025 BKN040
  PROB30 1723/1805 3SM TSRA BKN025 BKN040CB


METAR Board
Radar Display
Forecast Discussion
For situational awareness. Not to be used for flight planning purposes.